createdAt,value
2024-02-05T00:00:07.832Z,0.60
2024-02-05T00:01:07.883Z,0.40
2024-02-05T00:02:07.800Z,0.60
2024-02-05T00:03:07.797Z,0.60
2024-02-05T00:04:07.803Z,0.60
2024-02-05T00:05:07.783Z,0.70
2024-02-05T00:06:07.780Z,0.90
2024-02-05T00:07:07.792Z,0.60
2024-02-05T00:08:07.846Z,1.10
2024-02-05T00:09:07.718Z,0.90
2024-02-05T00:10:07.766Z,0.50
2024-02-05T00:11:07.712Z,0.80
2024-02-05T00:12:07.677Z,0.70
2024-02-05T00:13:07.678Z,0.60
2024-02-05T00:14:07.656Z,0.60
2024-02-05T00:15:07.657Z,0.80
2024-02-05T00:16:07.658Z,0.70
2024-02-05T00:17:07.606Z,0.80
2024-02-05T00:18:07.619Z,1.00
2024-02-05T00:19:07.688Z,0.60
2024-02-05T00:20:07.625Z,0.70
2024-02-05T00:21:07.567Z,0.60
2024-02-05T00:22:07.598Z,1.00
2024-02-05T00:23:07.535Z,0.90
2024-02-05T00:24:07.557Z,0.80
2024-02-05T00:25:07.559Z,1.10
2024-02-05T00:26:07.503Z,0.70
2024-02-05T00:27:07.485Z,1.00
2024-02-05T00:28:07.539Z,0.80
2024-02-05T00:29:07.468Z,0.80
2024-02-05T00:30:07.453Z,0.80
2024-02-05T00:31:07.470Z,0.90
2024-02-05T00:32:07.418Z,0.70
2024-02-05T00:33:07.508Z,0.90
2024-02-05T00:34:07.487Z,0.80
2024-02-05T00:35:07.381Z,1.00
2024-02-05T00:36:07.413Z,0.70
2024-02-05T00:37:07.360Z,0.70
2024-02-05T00:38:07.335Z,0.90
2024-02-05T00:39:07.336Z,1.40
2024-02-05T00:40:07.517Z,0.90
2024-02-05T00:41:07.306Z,0.70
2024-02-05T00:42:07.304Z,0.80
2024-02-05T00:43:07.286Z,0.70
2024-02-05T00:44:07.264Z,0.90
2024-02-05T00:45:07.247Z,1.00
2024-02-05T00:46:07.371Z,0.80
2024-02-05T00:47:07.278Z,1.20
2024-02-05T00:48:07.279Z,0.90
2024-02-05T00:49:07.310Z,1.00
2024-02-05T00:50:07.426Z,1.30
2024-02-05T00:51:07.262Z,0.90
2024-02-05T00:52:07.277Z,1.00
2024-02-05T00:53:07.219Z,0.90
2024-02-05T00:54:07.190Z,1.00
2024-02-05T00:55:07.304Z,1.10
2024-02-05T00:56:07.291Z,1.10
2024-02-05T00:57:07.170Z,0.70
2024-02-05T00:58:07.173Z,1.00
2024-02-05T00:59:07.104Z,0.90
2024-02-05T01:00:07.080Z,0.80
2024-02-05T01:01:07.164Z,0.90
2024-02-05T01:02:07.183Z,1.00
2024-02-05T01:03:07.041Z,1.00
2024-02-05T01:04:07.213Z,1.10
2024-02-05T01:05:07.181Z,1.00
2024-02-05T01:06:07.097Z,0.90
2024-02-05T01:07:07.094Z,0.90
2024-02-05T01:08:07.041Z,1.20
2024-02-05T01:09:06.969Z,1.00
2024-02-05T01:10:06.993Z,0.70
2024-02-05T01:11:06.934Z,1.00
2024-02-05T01:12:06.943Z,1.00
2024-02-05T01:13:06.940Z,1.50
2024-02-05T01:14:06.905Z,1.30
2024-02-05T01:15:06.881Z,0.80
2024-02-05T01:16:06.892Z,1.10
2024-02-05T01:17:06.861Z,0.80
2024-02-05T01:18:06.912Z,1.10
2024-02-05T01:19:06.887Z,1.00
2024-02-05T01:20:06.880Z,1.20
2024-02-05T01:21:06.820Z,1.30
2024-02-05T01:22:06.856Z,0.80
2024-02-05T01:23:06.782Z,1.10
2024-02-05T01:24:06.787Z,0.90
2024-02-05T01:25:06.823Z,1.20
2024-02-05T01:26:06.747Z,1.20
2024-02-05T01:27:06.768Z,1.00
2024-02-05T01:28:06.749Z,1.10
2024-02-05T01:29:06.713Z,1.20
2024-02-05T01:30:06.697Z,1.20
2024-02-05T01:31:06.749Z,1.20
2024-02-05T01:32:06.668Z,1.20
2024-02-05T01:33:06.705Z,1.10
2024-02-05T01:34:06.761Z,1.00
2024-02-05T01:35:06.683Z,1.10
2024-02-05T01:36:06.645Z,1.40
2024-02-05T01:37:06.629Z,1.00
2024-02-05T01:38:06.600Z,2.00
2024-02-05T01:39:06.586Z,1.30
2024-02-05T01:40:06.641Z,1.20
2024-02-05T01:41:06.567Z,1.40
2024-02-05T01:42:06.553Z,1.10
2024-02-05T01:43:06.547Z,1.40
2024-02-05T01:44:06.506Z,1.20
2024-02-05T01:45:06.510Z,1.10
2024-02-05T01:46:06.582Z,1.10
2024-02-05T01:47:06.482Z,0.80
2024-02-05T01:48:06.563Z,1.00
2024-02-05T01:49:06.513Z,1.00
2024-02-05T01:50:06.496Z,1.40
2024-02-05T01:51:06.462Z,1.00
2024-02-05T01:52:06.485Z,1.30
2024-02-05T01:53:06.415Z,1.50
2024-02-05T01:54:06.417Z,1.10
2024-02-05T01:55:06.411Z,1.40
2024-02-05T01:56:06.359Z,1.20
2024-02-05T01:57:06.349Z,1.20
2024-02-05T01:58:06.420Z,1.10
2024-02-05T01:59:06.331Z,1.30
2024-02-05T02:00:06.320Z,1.20
2024-02-05T02:01:06.361Z,1.40
2024-02-05T02:02:06.327Z,1.50
2024-02-05T02:03:06.286Z,1.50
2024-02-05T02:04:06.322Z,1.40
2024-02-05T02:05:06.373Z,1.10
2024-02-05T02:06:06.247Z,1.60
2024-02-05T02:07:06.316Z,1.30
2024-02-05T02:08:06.222Z,1.40
2024-02-05T02:09:06.208Z,1.60
2024-02-05T02:10:06.215Z,1.30
2024-02-05T02:11:06.183Z,1.30
2024-02-05T02:12:06.159Z,1.30
2024-02-05T02:13:06.375Z,1.40
2024-02-05T02:14:06.138Z,1.70
2024-02-05T02:15:06.147Z,1.90
2024-02-05T02:16:06.148Z,1.60
2024-02-05T02:17:06.111Z,1.60
2024-02-05T02:18:06.126Z,1.50
2024-02-05T02:19:06.173Z,1.90
2024-02-05T02:20:06.174Z,1.40
2024-02-05T02:21:06.048Z,1.70
2024-02-05T02:22:06.085Z,1.90
2024-02-05T02:23:06.041Z,2.00
2024-02-05T02:24:06.017Z,1.90
2024-02-05T02:25:06.007Z,1.80
2024-02-05T02:26:05.999Z,1.90
2024-02-05T02:27:05.970Z,1.70
2024-02-05T02:28:05.959Z,2.00
2024-02-05T02:29:05.952Z,1.90
2024-02-05T02:30:05.947Z,1.50
2024-02-05T02:31:05.959Z,1.70
2024-02-05T02:32:05.948Z,1.80
2024-02-05T02:33:06.004Z,1.70
2024-02-05T02:34:06.066Z,1.90
2024-02-05T02:35:05.904Z,2.10
2024-02-05T02:36:05.859Z,2.20
2024-02-05T02:37:05.925Z,2.30
2024-02-05T02:38:05.824Z,1.90
2024-02-05T02:39:05.846Z,2.30
2024-02-05T02:40:05.861Z,2.10
2024-02-05T02:41:05.798Z,2.20
2024-02-05T02:42:05.805Z,2.40
2024-02-05T02:43:05.801Z,2.50
2024-02-05T02:44:05.789Z,2.40
2024-02-05T02:45:05.754Z,2.70
2024-02-05T02:46:05.785Z,1.80
2024-02-05T02:47:05.720Z,2.20
2024-02-05T02:48:05.828Z,2.00
2024-02-05T02:49:05.758Z,2.40
2024-02-05T02:50:05.684Z,2.10
2024-02-05T02:51:05.669Z,2.60
2024-02-05T02:52:05.726Z,2.40
2024-02-05T02:53:05.656Z,2.50
2024-02-05T02:54:05.650Z,2.80
2024-02-05T02:55:05.725Z,2.90
2024-02-05T02:56:05.599Z,2.70
2024-02-05T02:57:05.596Z,2.00
2024-02-05T02:58:05.626Z,2.60
2024-02-05T02:59:05.575Z,1.90
2024-02-05T03:00:05.541Z,2.40
2024-02-05T03:01:05.661Z,2.40
2024-02-05T03:02:05.602Z,2.40
2024-02-05T03:03:05.585Z,2.80
2024-02-05T03:04:05.594Z,2.80
2024-02-05T03:05:05.501Z,2.70
2024-02-05T03:06:05.599Z,3.00
2024-02-05T03:07:05.521Z,2.00
2024-02-05T03:08:05.464Z,2.60
2024-02-05T03:09:05.447Z,2.60
2024-02-05T03:10:05.482Z,2.90
2024-02-05T03:11:05.432Z,2.60
2024-02-05T03:12:05.395Z,2.50
2024-02-05T03:13:05.487Z,2.50
2024-02-05T03:14:05.370Z,2.60
2024-02-05T03:15:05.373Z,2.50
2024-02-05T03:16:05.367Z,2.30
2024-02-05T03:17:05.333Z,2.50
2024-02-05T03:18:05.378Z,2.70
2024-02-05T03:19:05.463Z,3.10
2024-02-05T03:20:05.423Z,2.40
2024-02-05T03:21:05.300Z,2.80
2024-02-05T03:22:05.388Z,2.80
2024-02-05T03:23:08.984Z,3.00
2024-02-05T03:24:05.245Z,2.30
2024-02-05T03:25:05.340Z,2.60
2024-02-05T03:26:05.217Z,2.40
2024-02-05T03:27:05.218Z,2.80
2024-02-05T03:28:05.244Z,2.50
2024-02-05T03:29:05.198Z,2.70
2024-02-05T03:30:05.214Z,2.60
2024-02-05T03:31:05.199Z,2.80
2024-02-05T03:32:05.238Z,3.30
2024-02-05T03:33:05.143Z,2.50
2024-02-05T03:34:05.235Z,2.50
2024-02-05T03:35:05.142Z,2.70
2024-02-05T03:36:05.093Z,3.00
2024-02-05T03:37:05.100Z,3.40
2024-02-05T03:38:05.064Z,3.00
2024-02-05T03:39:05.055Z,3.00
2024-02-05T03:40:05.076Z,2.60
2024-02-05T03:41:05.045Z,2.60
2024-02-05T03:42:05.045Z,2.90
2024-02-05T03:43:05.056Z,2.80
2024-02-05T03:44:05.027Z,3.20
2024-02-05T03:45:04.986Z,3.70
2024-02-05T03:46:05.014Z,3.50
2024-02-05T03:47:04.963Z,3.10
2024-02-05T03:48:05.004Z,3.00
2024-02-05T03:49:04.978Z,2.80
2024-02-05T03:50:05.000Z,3.20
2024-02-05T03:51:04.919Z,3.10
2024-02-05T03:52:04.944Z,2.70
2024-02-05T03:53:04.875Z,3.10
2024-02-05T03:54:04.897Z,3.10
2024-02-05T03:55:04.930Z,2.90
2024-02-05T03:56:04.842Z,3.40
2024-02-05T03:57:04.842Z,2.90
2024-02-05T03:58:04.885Z,3.20
2024-02-05T03:59:04.822Z,3.30
2024-02-05T04:00:04.778Z,3.10
2024-02-05T04:01:04.814Z,3.00
2024-02-05T04:02:04.864Z,3.30
2024-02-05T04:03:04.840Z,3.50
2024-02-05T04:04:04.800Z,3.00
2024-02-05T04:05:04.758Z,3.10
2024-02-05T04:06:04.769Z,3.30
2024-02-05T04:07:04.716Z,3.70
2024-02-05T04:08:04.694Z,3.10
2024-02-05T04:09:04.672Z,3.10
2024-02-05T04:10:04.761Z,2.90
2024-02-05T04:11:04.660Z,3.00
2024-02-05T04:12:04.644Z,3.20
2024-02-05T04:13:04.641Z,3.20
2024-02-05T04:14:04.615Z,3.20
2024-02-05T04:15:04.616Z,3.00
2024-02-05T04:16:04.594Z,3.00
2024-02-05T04:17:04.600Z,3.30
2024-02-05T04:18:04.605Z,3.20
2024-02-05T04:19:04.659Z,3.00
2024-02-05T04:20:04.608Z,2.90
2024-02-05T04:21:04.514Z,3.20
2024-02-05T04:22:04.554Z,4.30
2024-02-05T04:23:06.868Z,2.90
2024-02-05T04:24:04.469Z,3.20
2024-02-05T04:25:04.506Z,3.60
2024-02-05T04:26:04.455Z,3.40
2024-02-05T04:27:04.464Z,3.10
2024-02-05T04:28:04.529Z,2.90
2024-02-05T04:29:04.423Z,3.00
2024-02-05T04:30:04.423Z,2.70
2024-02-05T04:31:04.469Z,2.90
2024-02-05T04:32:04.381Z,3.10
2024-02-05T04:33:06.374Z,3.20
2024-02-05T04:34:04.416Z,3.10
2024-02-05T04:35:04.547Z,3.10
2024-02-05T04:36:04.321Z,3.00
2024-02-05T04:37:04.355Z,2.90
2024-02-05T04:38:04.311Z,2.80
2024-02-05T04:39:04.284Z,3.10
2024-02-05T04:40:04.328Z,3.10
2024-02-05T04:41:04.268Z,3.00
2024-02-05T04:42:04.244Z,2.70
2024-02-05T04:43:04.281Z,2.40
2024-02-05T04:44:04.228Z,2.70
2024-02-05T04:45:04.254Z,2.60
2024-02-05T04:46:04.271Z,2.80
2024-02-05T04:47:04.189Z,2.10
2024-02-05T04:48:04.200Z,2.60
2024-02-05T04:49:04.293Z,2.60
2024-02-05T04:50:04.270Z,2.20
2024-02-05T04:51:04.161Z,2.30
2024-02-05T04:52:04.179Z,2.60
2024-02-05T04:53:04.116Z,2.10
2024-02-05T04:54:04.092Z,1.90
2024-02-05T04:55:04.188Z,2.10
2024-02-05T04:56:04.100Z,2.50
2024-02-05T04:57:04.059Z,1.60
2024-02-05T04:58:04.080Z,1.90
2024-02-05T04:59:04.035Z,1.80
2024-02-05T05:00:04.046Z,1.70
2024-02-05T05:01:04.205Z,1.50
2024-02-05T05:02:04.277Z,1.70
2024-02-05T05:03:03.990Z,1.60
2024-02-05T05:04:04.019Z,1.60
2024-02-05T05:05:04.002Z,1.50
2024-02-05T05:06:03.951Z,1.60
2024-02-05T05:07:04.039Z,1.50
2024-02-05T05:08:03.914Z,1.30
2024-02-05T05:09:03.956Z,1.70
2024-02-05T05:10:03.926Z,1.60
2024-02-05T05:11:03.900Z,1.70
2024-02-05T05:12:03.876Z,1.70
2024-02-05T05:13:03.850Z,1.50
2024-02-05T05:14:03.866Z,1.30
2024-02-05T05:15:03.841Z,1.20
2024-02-05T05:16:03.888Z,1.70
2024-02-05T05:17:03.812Z,1.20
2024-02-05T05:18:03.846Z,1.10
2024-02-05T05:19:03.915Z,1.00
2024-02-05T05:20:03.792Z,1.30
2024-02-05T05:21:03.755Z,1.50
2024-02-05T05:22:03.761Z,0.80
2024-02-05T05:23:03.726Z,1.10
2024-02-05T05:24:03.712Z,0.90
2024-02-05T05:25:03.718Z,1.10
2024-02-05T05:26:03.700Z,1.30
2024-02-05T05:27:03.672Z,1.40
2024-02-05T05:28:03.686Z,1.70
2024-02-05T05:29:03.673Z,1.10
2024-02-05T05:30:03.636Z,0.90
2024-02-05T05:31:03.624Z,1.10
2024-02-05T05:32:03.593Z,1.10
2024-02-05T05:33:03.683Z,0.80
2024-02-05T05:34:03.641Z,1.00
2024-02-05T05:35:03.623Z,1.00
2024-02-05T05:36:03.565Z,0.80
2024-02-05T05:37:03.562Z,0.80
2024-02-05T05:38:03.623Z,0.90
2024-02-05T05:39:03.531Z,1.30
2024-02-05T05:40:03.523Z,0.80
2024-02-05T05:41:03.484Z,0.90
2024-02-05T05:42:03.467Z,0.90
2024-02-05T05:43:03.544Z,0.70
2024-02-05T05:44:03.460Z,0.90
2024-02-05T05:45:03.541Z,0.80
2024-02-05T05:46:04.396Z,0.90
2024-02-05T05:47:03.430Z,0.80
2024-02-05T05:48:03.422Z,0.80
2024-02-05T05:49:03.454Z,0.90
2024-02-05T05:50:03.549Z,0.90
2024-02-05T05:51:03.348Z,0.70
2024-02-05T05:52:03.420Z,0.90
2024-02-05T05:53:03.329Z,0.90
2024-02-05T05:54:03.319Z,0.80
2024-02-05T05:55:03.416Z,0.90
2024-02-05T05:56:03.289Z,0.70
2024-02-05T05:57:03.267Z,0.80
2024-02-05T05:58:03.340Z,0.70
2024-02-05T05:59:03.264Z,0.90
2024-02-05T06:00:03.301Z,0.90
2024-02-05T06:01:03.317Z,0.70
2024-02-05T06:02:03.374Z,1.10
2024-02-05T06:03:03.206Z,1.30
2024-02-05T06:04:03.297Z,1.00
2024-02-05T06:05:04.037Z,0.90
2024-02-05T06:06:03.188Z,0.90
2024-02-05T06:07:03.203Z,1.10
2024-02-05T06:08:03.138Z,0.90
2024-02-05T06:09:03.117Z,1.10
2024-02-05T06:10:03.202Z,0.80
2024-02-05T06:11:03.099Z,1.10
2024-02-05T06:12:03.085Z,1.10
2024-02-05T06:13:03.094Z,1.30
2024-02-05T06:14:03.124Z,0.80
2024-02-05T06:15:03.042Z,1.00
2024-02-05T06:16:03.179Z,1.50
2024-02-05T06:17:03.055Z,1.10
2024-02-05T06:18:03.074Z,1.10
2024-02-05T06:19:03.059Z,1.10
2024-02-05T06:20:04.089Z,1.10
2024-02-05T06:21:03.002Z,1.00
2024-02-05T06:22:03.020Z,1.10
2024-02-05T06:23:02.947Z,1.00
2024-02-05T06:24:02.939Z,1.00
2024-02-05T06:25:03.025Z,1.30
2024-02-05T06:26:02.927Z,1.10
2024-02-05T06:27:02.903Z,1.30
2024-02-05T06:28:03.975Z,1.20
2024-02-05T06:29:02.904Z,1.00
2024-02-05T06:30:02.843Z,1.00
2024-02-05T06:31:02.867Z,0.80
2024-02-05T06:32:02.819Z,1.20
2024-02-05T06:33:02.831Z,1.20
2024-02-05T06:34:05.662Z,1.30
2024-02-05T06:35:02.989Z,1.20
2024-02-05T06:36:02.788Z,1.10
2024-02-05T06:37:02.863Z,0.90
2024-02-05T06:38:02.745Z,1.20
2024-02-05T06:39:02.734Z,1.10
2024-02-05T06:40:02.811Z,1.20
2024-02-05T06:41:02.712Z,1.80
2024-02-05T06:42:02.693Z,1.60
2024-02-05T06:43:02.775Z,1.20
2024-02-05T06:44:02.722Z,1.10
2024-02-05T06:45:02.684Z,1.10
2024-02-05T06:46:02.712Z,1.20
2024-02-05T06:47:02.792Z,1.10
2024-02-05T06:48:02.694Z,1.10
2024-02-05T06:49:02.783Z,0.90
2024-02-05T06:50:02.675Z,1.20
2024-02-05T06:51:02.567Z,0.90
2024-02-05T06:52:02.648Z,1.20
2024-02-05T06:53:02.538Z,1.10
2024-02-05T06:54:02.531Z,1.10
2024-02-05T06:55:02.603Z,1.00
2024-02-05T06:56:02.514Z,0.90
2024-02-05T06:57:02.931Z,0.90
2024-02-05T06:58:03.135Z,1.20
2024-02-05T06:59:03.044Z,1.50
2024-02-05T07:00:02.741Z,1.40
2024-02-05T07:01:02.901Z,2.30
2024-02-05T07:02:02.714Z,1.50
2024-02-05T07:03:02.964Z,1.30
2024-02-05T07:04:03.904Z,1.00
2024-02-05T07:05:04.089Z,1.10
2024-02-05T07:06:03.581Z,1.20
2024-02-05T07:07:04.363Z,1.30
2024-02-05T07:08:02.593Z,1.10
2024-02-05T07:09:02.522Z,1.00
2024-02-05T07:10:02.644Z,1.20
2024-02-05T07:11:02.420Z,1.20
2024-02-05T07:12:05.661Z,1.10
2024-02-05T07:13:02.532Z,1.00
2024-02-05T07:14:02.661Z,1.10
2024-02-05T07:15:04.039Z,1.10
2024-02-05T07:16:03.727Z,0.90
2024-02-05T07:17:02.561Z,0.90
2024-02-05T07:18:02.518Z,1.50
2024-02-05T07:19:02.330Z,0.90
2024-02-05T07:20:04.984Z,1.20
2024-02-05T07:21:03.531Z,1.10
2024-02-05T07:22:02.418Z,1.10
2024-02-05T07:23:02.436Z,1.00
2024-02-05T07:24:04.133Z,1.10
2024-02-05T07:25:02.413Z,1.20
2024-02-05T07:26:02.724Z,1.10
2024-02-05T07:27:04.066Z,1.30
2024-02-05T07:28:04.477Z,1.00
2024-02-05T07:29:02.193Z,1.30
2024-02-05T07:30:02.554Z,1.30
2024-02-05T07:31:03.972Z,1.10
2024-02-05T07:32:02.726Z,1.40
2024-02-05T07:33:02.196Z,1.10
2024-02-05T07:34:02.827Z,1.40
2024-02-05T07:35:02.333Z,1.20
2024-02-05T07:36:04.111Z,1.60
2024-02-05T07:37:02.038Z,1.10
2024-02-05T07:38:02.812Z,1.20
2024-02-05T07:39:03.649Z,1.30
2024-02-05T07:40:03.126Z,1.40
2024-02-05T07:41:15.544Z,1.50
2024-02-05T07:42:02.845Z,1.30
2024-02-05T07:43:11.232Z,1.30
2024-02-05T07:44:02.488Z,1.30
2024-02-05T07:45:02.813Z,1.40
2024-02-05T07:46:03.172Z,1.40
2024-02-05T07:47:02.643Z,1.60
2024-02-05T07:48:05.265Z,1.30
2024-02-05T07:49:03.460Z,1.10
2024-02-05T07:50:04.537Z,1.40
2024-02-05T07:51:01.984Z,1.20
2024-02-05T07:52:04.867Z,1.50
2024-02-05T07:53:02.038Z,1.40
2024-02-05T07:54:03.129Z,1.90
2024-02-05T07:55:05.561Z,1.50
2024-02-05T07:56:04.759Z,1.60
2024-02-05T07:57:01.952Z,1.60
2024-02-05T07:58:01.964Z,1.70
2024-02-05T07:59:03.591Z,2.00
2024-02-05T08:00:02.667Z,1.40
2024-02-05T08:01:02.612Z,1.50
2024-02-05T08:02:01.771Z,1.60
2024-02-05T08:03:01.766Z,2.40
2024-02-05T08:04:01.750Z,1.90
2024-02-05T08:05:04.323Z,2.00
2024-02-05T08:06:04.010Z,2.00
2024-02-05T08:07:03.368Z,1.90
2024-02-05T08:08:02.633Z,2.20
2024-02-05T08:09:02.875Z,2.00
2024-02-05T08:10:02.024Z,1.70
2024-02-05T08:11:02.374Z,1.70
2024-02-05T08:12:03.864Z,1.80
2024-02-05T08:13:02.088Z,1.80
2024-02-05T08:14:01.653Z,1.60
2024-02-05T08:15:03.969Z,2.00
2024-02-05T08:16:01.656Z,1.60
2024-02-05T08:17:09.164Z,2.00
2024-02-05T08:18:02.161Z,2.10
2024-02-05T08:19:02.856Z,1.80
2024-02-05T08:20:04.969Z,1.90
2024-02-05T08:21:02.317Z,1.70
2024-02-05T08:22:01.959Z,1.80
2024-02-05T08:23:01.927Z,1.60
2024-02-05T08:24:01.445Z,1.80
2024-02-05T08:25:01.456Z,1.80
2024-02-05T08:26:01.393Z,1.50
2024-02-05T08:27:01.424Z,1.70
2024-02-05T08:28:01.373Z,1.50
2024-02-05T08:29:01.348Z,1.80
2024-02-05T08:30:01.375Z,2.00
2024-02-05T08:31:01.328Z,2.00
2024-02-05T08:32:01.257Z,1.60
2024-02-05T08:33:01.369Z,1.50
2024-02-05T08:34:01.374Z,1.50
2024-02-05T08:35:01.531Z,1.40
2024-02-05T08:36:01.233Z,1.00
2024-02-05T08:37:01.258Z,1.30
2024-02-05T08:38:01.254Z,1.40
2024-02-05T08:39:01.179Z,1.20
2024-02-05T08:40:01.279Z,1.10
2024-02-05T08:41:01.244Z,1.60
2024-02-05T08:42:09.358Z,1.10
2024-02-05T08:43:01.169Z,1.10
2024-02-05T08:44:01.225Z,1.20
2024-02-05T08:45:03.495Z,1.20
2024-02-05T08:46:01.206Z,1.00
2024-02-05T08:47:01.113Z,0.90
2024-02-05T08:48:01.119Z,1.10
2024-02-05T08:49:01.175Z,1.20
2024-02-05T08:50:01.278Z,1.00
2024-02-05T08:51:01.374Z,0.90
2024-02-05T08:52:02.082Z,1.20
2024-02-05T08:53:01.202Z,1.50
2024-02-05T08:54:01.003Z,1.40
2024-02-05T08:55:01.020Z,1.40
2024-02-05T08:56:01.159Z,1.60
2024-02-05T08:57:00.945Z,1.40
2024-02-05T08:58:00.969Z,1.20
2024-02-05T08:59:01.015Z,1.10
2024-02-05T09:00:01.017Z,1.60
2024-02-05T09:01:01.161Z,1.40
2024-02-05T09:02:01.080Z,1.30
2024-02-05T09:03:00.928Z,1.20
2024-02-05T09:04:00.872Z,1.20
2024-02-05T09:05:00.841Z,1.60
2024-02-05T09:06:01.010Z,1.40
2024-02-05T09:07:00.884Z,1.30
2024-02-05T09:08:00.821Z,1.50
2024-02-05T09:09:00.785Z,1.30
2024-02-05T09:10:00.888Z,1.50
2024-02-05T09:11:00.741Z,1.20
2024-02-05T09:12:05.996Z,1.40
2024-02-05T09:13:00.785Z,1.70
2024-02-05T09:14:00.696Z,1.60
2024-02-05T09:15:00.794Z,1.40
2024-02-05T09:16:00.885Z,1.80
2024-02-05T09:17:00.936Z,1.60
2024-02-05T09:18:00.789Z,1.70
2024-02-05T09:19:00.892Z,1.60
2024-02-05T09:20:00.831Z,1.50
2024-02-05T09:21:00.613Z,1.70
2024-02-05T09:22:00.853Z,1.90
2024-02-05T09:23:00.721Z,2.90
2024-02-05T09:24:00.630Z,1.90
2024-02-05T09:25:00.648Z,2.00
2024-02-05T09:26:00.616Z,1.70
2024-02-05T09:27:00.654Z,1.90
2024-02-05T09:28:00.779Z,1.80
2024-02-05T09:29:00.585Z,2.80
2024-02-05T09:30:00.618Z,1.80
2024-02-05T09:31:08.973Z,2.10
2024-02-05T09:32:00.664Z,1.90
2024-02-05T09:33:00.548Z,1.60
2024-02-05T09:34:00.525Z,1.70
2024-02-05T09:35:00.580Z,2.10
2024-02-05T09:36:00.519Z,2.70
2024-02-05T09:37:00.503Z,1.80
2024-02-05T09:38:00.492Z,2.30
2024-02-05T09:39:00.621Z,2.20
2024-02-05T09:40:00.615Z,1.80
2024-02-05T09:41:00.363Z,2.30
2024-02-05T09:42:00.381Z,1.80
2024-02-05T09:43:00.412Z,1.90
2024-02-05T09:44:00.354Z,2.20
2024-02-05T09:45:00.371Z,2.50
2024-02-05T09:46:00.329Z,2.10
2024-02-05T09:47:00.300Z,2.40
2024-02-05T09:48:00.334Z,2.50
2024-02-05T09:49:00.450Z,2.10
2024-02-05T09:50:00.380Z,2.40
2024-02-05T09:51:00.433Z,2.60
2024-02-05T09:52:00.290Z,2.40
2024-02-05T09:53:00.223Z,2.30
2024-02-05T09:54:10.475Z,2.20
2024-02-05T09:55:00.381Z,2.10
2024-02-05T09:56:00.251Z,2.20
2024-02-05T09:57:00.157Z,2.70
2024-02-05T09:58:00.216Z,2.50
2024-02-05T09:59:00.167Z,2.40
2024-02-05T10:00:00.197Z,2.60
2024-02-05T10:01:00.281Z,2.50
2024-02-05T10:02:00.217Z,2.80
2024-02-05T10:03:00.152Z,2.60
2024-02-05T10:04:00.199Z,2.50
2024-02-05T10:05:00.394Z,2.80
2024-02-05T10:06:00.145Z,2.80
2024-02-05T10:07:01.065Z,2.50
2024-02-05T10:08:00.587Z,2.60
2024-02-05T10:09:00.003Z,2.70
2024-02-05T10:10:00.142Z,2.60
2024-02-05T10:11:00.021Z,2.70
2024-02-05T10:12:00.036Z,2.90
2024-02-05T10:13:00.136Z,2.40
2024-02-05T10:13:59.987Z,3.20
2024-02-05T10:15:00.056Z,2.60
2024-02-05T10:15:59.967Z,2.50
2024-02-05T10:17:03.638Z,2.50
2024-02-05T10:18:01.062Z,2.60
2024-02-05T10:18:59.972Z,2.80
2024-02-05T10:20:00.246Z,2.80
2024-02-05T10:20:59.891Z,3.00
2024-02-05T10:21:59.901Z,2.80
2024-02-05T10:22:59.897Z,3.10
2024-02-05T10:23:59.870Z,2.60
2024-02-05T10:24:59.917Z,2.90
2024-02-05T10:26:00.062Z,3.00
2024-02-05T10:27:00.020Z,3.10
2024-02-05T10:27:59.831Z,3.20
2024-02-05T10:28:59.795Z,2.60
2024-02-05T10:30:02.738Z,2.90
2024-02-05T10:31:00.114Z,2.60
2024-02-05T10:31:59.994Z,2.40
2024-02-05T10:32:59.891Z,2.60
2024-02-05T10:34:00.364Z,2.80
2024-02-05T10:34:59.813Z,2.40
2024-02-05T10:36:02.680Z,3.60
2024-02-05T10:36:59.787Z,4.30
2024-02-05T10:37:59.829Z,2.90
2024-02-05T10:38:59.806Z,2.50
2024-02-05T10:40:00.078Z,2.60
2024-02-05T10:40:59.630Z,2.40
2024-02-05T10:42:00.674Z,2.30
2024-02-05T10:42:59.664Z,3.00
2024-02-05T10:43:59.974Z,2.40
2024-02-05T10:44:59.693Z,2.80
2024-02-05T10:45:59.671Z,2.30
2024-02-05T10:46:59.540Z,2.40
2024-02-05T10:47:59.744Z,2.70
2024-02-05T10:48:59.753Z,2.70
2024-02-05T10:50:00.880Z,2.60
2024-02-05T10:50:59.529Z,2.70
2024-02-05T10:51:59.581Z,2.50
2024-02-05T10:52:59.695Z,2.90
2024-02-05T10:53:59.728Z,2.70
2024-02-05T10:55:00.097Z,2.20
2024-02-05T10:55:59.648Z,2.50
2024-02-05T10:56:59.444Z,2.80
2024-02-05T10:57:59.621Z,2.30
2024-02-05T10:58:59.379Z,2.60
2024-02-05T10:59:59.923Z,2.50
2024-02-05T11:00:59.500Z,2.60
2024-02-05T11:02:00.754Z,2.40
2024-02-05T11:03:00.502Z,2.60
2024-02-05T11:04:00.939Z,2.10
2024-02-05T11:04:59.400Z,2.20
2024-02-05T11:05:59.553Z,2.40
2024-02-05T11:07:00.108Z,2.50
2024-02-05T11:07:59.287Z,2.30
2024-02-05T11:08:59.553Z,2.20
2024-02-05T11:09:59.676Z,2.30
2024-02-05T11:10:59.343Z,1.80
2024-02-05T11:12:00.738Z,2.50
2024-02-05T11:12:59.407Z,2.30
2024-02-05T11:13:59.205Z,2.10
2024-02-05T11:14:59.193Z,2.30
2024-02-05T11:16:03.113Z,2.10
2024-02-05T11:16:59.553Z,2.40
2024-02-05T11:17:59.717Z,2.20
2024-02-05T11:19:00.229Z,2.10
2024-02-05T11:19:59.272Z,2.20
2024-02-05T11:20:59.163Z,2.60
2024-02-05T11:22:02.551Z,2.00
2024-02-05T11:22:59.114Z,2.00
2024-02-05T11:23:59.051Z,2.20
2024-02-05T11:24:59.157Z,2.40
2024-02-05T11:25:59.106Z,2.40
2024-02-05T11:26:59.109Z,2.20
2024-02-05T11:28:01.211Z,2.00
2024-02-05T11:28:59.017Z,2.20
2024-02-05T11:29:59.384Z,1.70
2024-02-05T11:30:59.082Z,2.20
2024-02-05T11:31:59.113Z,2.00
2024-02-05T11:32:59.056Z,1.60
2024-02-05T11:34:00.982Z,2.40
2024-02-05T11:34:59.018Z,1.90
2024-02-05T11:35:58.966Z,2.00
2024-02-05T11:36:58.910Z,2.00
2024-02-05T11:37:59.789Z,1.60
2024-02-05T11:38:59.080Z,1.90
2024-02-05T11:39:59.161Z,1.90
2024-02-05T11:41:01.830Z,1.70
2024-02-05T11:41:58.824Z,2.00
2024-02-05T11:42:58.942Z,2.20
2024-02-05T11:43:59.627Z,2.10
2024-02-05T11:44:58.853Z,2.10
2024-02-05T11:45:58.808Z,2.50
2024-02-05T11:46:58.804Z,1.60
2024-02-05T11:47:58.781Z,2.00
2024-02-05T11:48:59.032Z,1.90
2024-02-05T11:49:58.867Z,1.90
2024-02-05T11:50:58.763Z,2.00
2024-02-05T11:51:58.722Z,1.80
2024-02-05T11:52:58.687Z,1.80
2024-02-05T11:53:58.730Z,2.00
2024-02-05T11:54:58.706Z,1.60
2024-02-05T11:55:58.687Z,1.70
2024-02-05T11:56:58.729Z,1.10
2024-02-05T11:57:58.680Z,1.60
2024-02-05T11:58:58.607Z,1.30
2024-02-05T11:59:58.667Z,1.60
2024-02-05T12:00:59.208Z,2.20
2024-02-05T12:01:59.110Z,2.10
2024-02-05T12:03:01.091Z,1.50
2024-02-05T12:03:59.925Z,2.10
2024-02-05T12:04:59.404Z,1.60
2024-02-05T12:05:58.625Z,2.10
2024-02-05T12:06:59.387Z,1.80
2024-02-05T12:07:59.836Z,2.20
2024-02-05T12:08:58.858Z,1.80
2024-02-05T12:09:58.615Z,1.90
2024-02-05T12:10:58.512Z,2.10
2024-02-05T12:11:58.450Z,1.90
2024-02-05T12:13:09.595Z,1.60
2024-02-05T12:13:58.496Z,1.50
2024-02-05T12:14:59.463Z,1.70
2024-02-05T12:15:58.754Z,1.80
2024-02-05T12:16:58.553Z,2.00
2024-02-05T12:17:58.602Z,1.40
2024-02-05T12:19:11.011Z,2.10
2024-02-05T12:19:58.496Z,1.60
2024-02-05T12:20:58.336Z,1.90
2024-02-05T12:21:58.459Z,1.80
2024-02-05T12:22:58.376Z,2.00
2024-02-05T12:23:58.371Z,1.90
2024-02-05T12:24:58.504Z,1.90
2024-02-05T12:25:58.421Z,1.60
2024-02-05T12:26:58.903Z,1.90
2024-02-05T12:27:58.505Z,1.80
2024-02-05T12:28:58.387Z,2.10
2024-02-05T12:29:58.408Z,1.90
2024-02-05T12:30:58.716Z,2.00
2024-02-05T12:31:59.383Z,2.20
2024-02-05T12:32:58.408Z,2.40
2024-02-05T12:33:58.436Z,1.70
2024-02-05T12:34:58.453Z,1.90
2024-02-05T12:35:58.548Z,2.00
2024-02-05T12:36:58.305Z,2.00
2024-02-05T12:37:58.198Z,2.00
2024-02-05T12:38:58.422Z,1.80
2024-02-05T12:39:59.362Z,2.50
2024-02-05T12:40:58.393Z,2.20
2024-02-05T12:41:58.203Z,2.20
2024-02-05T12:42:58.676Z,1.80
2024-02-05T12:43:58.282Z,1.90
2024-02-05T12:45:09.390Z,1.60
2024-02-05T12:45:58.070Z,1.90
2024-02-05T12:46:58.821Z,1.90
2024-02-05T12:47:58.005Z,1.80
2024-02-05T12:48:58.106Z,1.60
2024-02-05T12:49:58.093Z,2.00
2024-02-05T12:50:58.066Z,1.60
2024-02-05T12:51:57.979Z,2.10
2024-02-05T12:52:57.969Z,1.80
2024-02-05T12:53:57.928Z,1.80
2024-02-05T12:54:57.931Z,1.70
2024-02-05T12:55:57.860Z,1.80
2024-02-05T12:56:57.897Z,2.30
2024-02-05T12:57:57.854Z,1.80
2024-02-05T12:58:57.856Z,2.40
2024-02-05T12:59:57.840Z,2.10
2024-02-05T13:00:57.942Z,1.60
2024-02-05T13:02:01.095Z,1.80
2024-02-05T13:02:57.793Z,2.10
2024-02-05T13:03:57.833Z,1.80
2024-02-05T13:04:58.026Z,2.20
2024-02-05T13:05:57.874Z,1.90
2024-02-05T13:06:57.905Z,2.10
2024-02-05T13:07:57.842Z,2.20
2024-02-05T13:08:57.712Z,2.10
2024-02-05T13:09:58.795Z,2.10
2024-02-05T13:10:57.857Z,2.00
2024-02-05T13:11:57.844Z,2.00
2024-02-05T13:12:58.418Z,2.70
2024-02-05T13:13:58.088Z,2.60
2024-02-05T13:15:00.165Z,2.20
2024-02-05T13:15:59.884Z,2.00
2024-02-05T13:16:58.792Z,2.00
2024-02-05T13:18:00.372Z,2.20